createdAt,value
2023-06-27T00:00:01.767Z,12.33
2023-06-27T00:01:01.260Z,12.17
2023-06-27T00:02:01.802Z,12.97
2023-06-27T00:03:01.382Z,12.23
2023-06-27T00:04:01.644Z,12.87
2023-06-27T00:05:01.328Z,13.40
2023-06-27T00:06:01.273Z,13.43
2023-06-27T00:07:01.350Z,11.03
2023-06-27T00:08:01.982Z,11.90
2023-06-27T00:09:01.324Z,13.73
2023-06-27T00:10:02.604Z,13.03
2023-06-27T00:11:01.383Z,12.27
2023-06-27T00:12:01.249Z,12.00
2023-06-27T00:13:01.643Z,12.17
2023-06-27T00:14:01.334Z,11.70
2023-06-27T00:15:02.199Z,12.97
2023-06-27T00:16:01.282Z,13.60
2023-06-27T00:17:01.287Z,12.97
2023-06-27T00:18:01.594Z,13.30
2023-06-27T00:19:03.168Z,12.87
2023-06-27T00:20:02.112Z,13.27
2023-06-27T00:21:01.631Z,13.60
2023-06-27T00:22:01.676Z,13.07
2023-06-27T00:23:18.817Z,14.63
2023-06-27T00:24:02.072Z,13.30
2023-06-27T00:25:01.320Z,13.83
2023-06-27T00:26:02.721Z,13.87
2023-06-27T00:27:01.353Z,12.03
2023-06-27T00:28:01.329Z,13.10
2023-06-27T00:29:02.094Z,11.70
2023-06-27T00:30:02.010Z,13.17
2023-06-27T00:31:02.165Z,13.70
2023-06-27T00:32:01.637Z,12.23
2023-06-27T00:33:01.306Z,11.90
2023-06-27T00:34:01.632Z,14.07
2023-06-27T00:35:01.340Z,12.37
2023-06-27T00:36:01.599Z,13.80
2023-06-27T00:37:01.395Z,12.77
2023-06-27T00:38:02.542Z,13.07
2023-06-27T00:39:01.254Z,13.73
2023-06-27T00:40:01.295Z,13.17
2023-06-27T00:41:02.107Z,13.00
2023-06-27T00:42:01.630Z,13.87
2023-06-27T00:43:01.257Z,12.17
2023-06-27T00:44:06.399Z,13.47
2023-06-27T00:45:01.328Z,13.73
2023-06-27T00:46:03.623Z,12.87
2023-06-27T00:47:01.639Z,12.83
2023-06-27T00:48:03.176Z,14.97
2023-06-27T00:49:01.974Z,13.90
2023-06-27T00:50:01.906Z,12.23
2023-06-27T00:51:01.848Z,14.87
2023-06-27T00:52:02.102Z,13.13
2023-06-27T00:53:02.650Z,13.23
2023-06-27T00:54:01.815Z,13.33
2023-06-27T00:55:02.502Z,13.87
2023-06-27T00:56:02.319Z,15.33
2023-06-27T00:57:02.290Z,15.80
2023-06-27T00:58:02.194Z,15.13
2023-06-27T00:59:02.631Z,15.27
2023-06-27T01:00:01.383Z,14.77
2023-06-27T01:01:01.367Z,14.13
2023-06-27T01:02:01.921Z,14.57
2023-06-27T01:03:01.823Z,14.07
2023-06-27T01:04:01.348Z,14.17
2023-06-27T01:05:01.428Z,16.10
2023-06-27T01:06:11.456Z,13.93
2023-06-27T01:07:07.908Z,15.00
2023-06-27T01:08:06.407Z,13.37
2023-06-27T01:09:05.392Z,13.87
2023-06-27T01:10:09.560Z,15.17
2023-06-27T01:11:08.281Z,14.13
2023-06-27T01:12:09.001Z,13.63
2023-06-27T01:13:09.374Z,13.47
2023-06-27T01:14:03.599Z,15.07
2023-06-27T01:15:04.310Z,15.00
2023-06-27T01:16:01.732Z,14.47
2023-06-27T01:17:02.343Z,14.97
2023-06-27T01:18:03.378Z,13.27
2023-06-27T01:19:07.045Z,14.83
2023-06-27T01:20:02.483Z,14.53
2023-06-27T01:21:01.769Z,14.43
2023-06-27T01:22:06.541Z,14.87
2023-06-27T01:23:09.165Z,14.00
2023-06-27T01:24:01.764Z,14.83
2023-06-27T01:25:03.108Z,13.77
2023-06-27T01:26:01.753Z,14.63
2023-06-27T01:27:01.480Z,15.90
2023-06-27T01:28:01.302Z,15.07
2023-06-27T01:29:01.936Z,15.13
2023-06-27T01:30:01.309Z,13.60
2023-06-27T01:31:01.982Z,15.87
2023-06-27T01:32:10.725Z,13.93
2023-06-27T01:33:04.944Z,16.97
2023-06-27T01:34:07.342Z,14.43
2023-06-27T01:35:06.492Z,16.03
2023-06-27T01:36:09.751Z,15.07
2023-06-27T01:37:05.832Z,15.63
2023-06-27T01:38:06.210Z,17.10
2023-06-27T01:39:06.620Z,14.93
2023-06-27T01:40:06.422Z,16.47
2023-06-27T01:41:06.270Z,16.27
2023-06-27T01:42:11.652Z,15.57
2023-06-27T01:43:05.708Z,16.03
2023-06-27T01:44:04.589Z,16.63
2023-06-27T01:45:02.841Z,15.50
2023-06-27T01:46:02.239Z,17.87
2023-06-27T01:47:02.102Z,14.37
2023-06-27T01:48:02.049Z,15.50
2023-06-27T01:49:01.947Z,16.83
2023-06-27T01:50:02.157Z,16.00
2023-06-27T01:51:01.739Z,15.73
2023-06-27T01:52:01.655Z,16.73
2023-06-27T01:53:01.684Z,16.93
2023-06-27T01:54:01.660Z,16.30
2023-06-27T01:55:02.219Z,16.03
2023-06-27T01:56:01.791Z,15.47
2023-06-27T01:57:01.694Z,16.77
2023-06-27T01:58:02.070Z,17.13
2023-06-27T01:59:02.332Z,16.53
2023-06-27T02:00:02.146Z,16.23
2023-06-27T02:01:01.461Z,16.80
2023-06-27T02:02:02.093Z,16.43
2023-06-27T02:03:01.391Z,16.70
2023-06-27T02:04:01.271Z,18.67
2023-06-27T02:05:01.605Z,17.30
2023-06-27T02:06:01.290Z,17.47
2023-06-27T02:07:01.667Z,17.77
2023-06-27T02:08:01.313Z,18.13
2023-06-27T02:09:01.911Z,17.27
2023-06-27T02:10:01.832Z,17.80
2023-06-27T02:11:01.271Z,17.23
2023-06-27T02:12:01.380Z,16.37
2023-06-27T02:13:02.232Z,19.33
2023-06-27T02:14:01.303Z,18.73
2023-06-27T02:15:01.364Z,18.13
2023-06-27T02:16:01.258Z,19.07
2023-06-27T02:17:01.651Z,18.63
2023-06-27T02:18:01.389Z,18.63
2023-06-27T02:19:01.321Z,17.87
2023-06-27T02:20:02.088Z,17.10
2023-06-27T02:21:01.333Z,19.43
2023-06-27T02:22:01.740Z,18.10
2023-06-27T02:23:01.745Z,17.53
2023-06-27T02:24:01.324Z,19.33
2023-06-27T02:25:01.708Z,17.23
2023-06-27T02:26:03.155Z,17.47
2023-06-27T02:27:01.744Z,18.87
2023-06-27T02:28:01.638Z,18.87
2023-06-27T02:29:01.349Z,17.70
2023-06-27T02:30:01.404Z,19.13
2023-06-27T02:31:01.651Z,19.57
2023-06-27T02:32:01.364Z,18.07
2023-06-27T02:33:01.316Z,18.40
2023-06-27T02:34:01.704Z,18.33
2023-06-27T02:35:01.664Z,19.07
2023-06-27T02:36:02.339Z,16.97
2023-06-27T02:37:01.329Z,18.53
2023-06-27T02:38:01.628Z,20.00
2023-06-27T02:39:01.612Z,19.67
2023-06-27T02:40:01.635Z,17.90
2023-06-27T02:41:01.312Z,19.40
2023-06-27T02:42:02.228Z,19.07
2023-06-27T02:43:01.761Z,19.67
2023-06-27T02:44:01.340Z,19.10
2023-06-27T02:45:01.714Z,19.13
2023-06-27T02:46:01.277Z,19.97
2023-06-27T02:47:01.353Z,19.93
2023-06-27T02:48:01.760Z,20.03
2023-06-27T02:49:01.341Z,18.97
2023-06-27T02:50:01.732Z,18.57
2023-06-27T02:51:01.352Z,19.70
2023-06-27T02:52:01.643Z,19.77
2023-06-27T02:53:01.384Z,20.00
2023-06-27T02:54:01.416Z,19.87
2023-06-27T02:55:01.348Z,20.00
2023-06-27T02:56:03.006Z,20.50
2023-06-27T02:57:01.381Z,18.63
2023-06-27T02:58:01.309Z,20.30
2023-06-27T02:59:01.621Z,19.97
2023-06-27T03:00:01.397Z,19.33
2023-06-27T03:01:01.247Z,19.10
2023-06-27T03:02:01.730Z,18.97
2023-06-27T03:03:01.421Z,20.43
2023-06-27T03:04:18.020Z,19.40
2023-06-27T03:05:01.267Z,20.00
2023-06-27T03:06:01.808Z,19.70
2023-06-27T03:07:01.634Z,18.90
2023-06-27T03:08:01.279Z,19.30
2023-06-27T03:09:01.811Z,18.87
2023-06-27T03:10:01.346Z,18.77
2023-06-27T03:11:01.585Z,19.47
2023-06-27T03:12:01.651Z,20.10
2023-06-27T03:13:01.356Z,20.00
2023-06-27T03:14:01.271Z,18.67
2023-06-27T03:15:02.033Z,18.90
2023-06-27T03:16:01.664Z,19.40
2023-06-27T03:17:01.307Z,20.57
2023-06-27T03:18:01.346Z,19.10
2023-06-27T03:19:01.623Z,18.33
2023-06-27T03:20:01.715Z,19.43
2023-06-27T03:21:01.261Z,18.20
2023-06-27T03:22:01.283Z,17.70
2023-06-27T03:23:01.305Z,18.47
2023-06-27T03:24:01.326Z,19.07
2023-06-27T03:25:01.317Z,18.27
2023-06-27T03:26:01.480Z,19.23
2023-06-27T03:27:01.639Z,18.87
2023-06-27T03:28:01.308Z,18.27
2023-06-27T03:29:01.349Z,18.87
2023-06-27T03:30:01.803Z,19.07
2023-06-27T03:31:01.679Z,19.27
2023-06-27T03:32:01.399Z,18.23
2023-06-27T03:33:01.628Z,19.27
2023-06-27T03:34:01.321Z,18.87
2023-06-27T03:35:01.657Z,18.33
2023-06-27T03:36:01.321Z,18.40
2023-06-27T03:37:01.520Z,16.27
2023-06-27T03:38:02.019Z,18.10
2023-06-27T03:39:02.162Z,18.07
2023-06-27T03:40:01.717Z,17.83
2023-06-27T03:41:01.596Z,18.77
2023-06-27T03:42:01.624Z,18.10
2023-06-27T03:43:02.171Z,19.60
2023-06-27T03:44:01.356Z,17.63
2023-06-27T03:45:01.691Z,19.27
2023-06-27T03:46:01.309Z,17.27
2023-06-27T03:47:01.312Z,18.60
2023-06-27T03:48:01.725Z,18.33
2023-06-27T03:49:01.731Z,17.93
2023-06-27T03:50:01.274Z,17.60
2023-06-27T03:51:01.638Z,18.47
2023-06-27T03:52:01.584Z,17.27
2023-06-27T03:53:01.750Z,18.83
2023-06-27T03:54:01.272Z,19.10
2023-06-27T03:55:01.279Z,19.23
2023-06-27T03:56:03.036Z,17.80
2023-06-27T03:57:01.659Z,17.03
2023-06-27T03:58:01.628Z,17.73
2023-06-27T03:59:02.053Z,17.33
2023-06-27T04:00:01.562Z,18.13
2023-06-27T04:01:01.315Z,18.33
2023-06-27T04:02:01.306Z,18.83
2023-06-27T04:03:01.744Z,18.63
2023-06-27T04:04:01.427Z,18.63
2023-06-27T04:05:01.983Z,18.53
2023-06-27T04:06:01.312Z,19.30
2023-06-27T04:07:01.305Z,19.93
2023-06-27T04:08:01.623Z,19.37
2023-06-27T04:09:01.980Z,17.60
2023-06-27T04:10:02.063Z,18.57
2023-06-27T04:11:01.634Z,18.07
2023-06-27T04:12:01.351Z,19.20
2023-06-27T04:13:01.340Z,18.57
2023-06-27T04:14:01.658Z,18.60
2023-06-27T04:15:01.282Z,18.73
2023-06-27T04:16:01.328Z,18.73
2023-06-27T04:17:01.714Z,18.73
2023-06-27T04:18:01.325Z,18.27
2023-06-27T04:19:01.631Z,19.33
2023-06-27T04:20:01.626Z,19.17
2023-06-27T04:21:01.513Z,17.87
2023-06-27T04:22:01.604Z,19.13
2023-06-27T04:23:02.021Z,18.50
2023-06-27T04:24:01.635Z,16.43
2023-06-27T04:25:01.726Z,17.53
2023-06-27T04:26:03.002Z,19.30
2023-06-27T04:27:01.360Z,18.63
2023-06-27T04:28:01.807Z,17.67
2023-06-27T04:29:01.339Z,19.23
2023-06-27T04:30:01.664Z,17.53
2023-06-27T04:31:02.279Z,19.23
2023-06-27T04:32:01.857Z,17.43
2023-06-27T04:33:01.677Z,16.97
2023-06-27T04:34:01.380Z,19.03
2023-06-27T04:35:01.337Z,16.70
2023-06-27T04:36:01.245Z,18.50
2023-06-27T04:37:01.318Z,16.57
2023-06-27T04:38:01.299Z,18.60
2023-06-27T04:39:01.303Z,17.90
2023-06-27T04:40:01.666Z,17.97
2023-06-27T04:41:01.634Z,19.60
2023-06-27T04:42:01.344Z,18.87
2023-06-27T04:43:01.584Z,17.37
2023-06-27T04:44:01.319Z,18.13
2023-06-27T04:45:01.298Z,17.67
2023-06-27T04:46:01.913Z,17.77
2023-06-27T04:47:01.653Z,18.07
2023-06-27T04:48:01.696Z,19.00
2023-06-27T04:49:01.288Z,18.30
2023-06-27T04:50:01.267Z,19.57
2023-06-27T04:51:03.933Z,19.27
2023-06-27T04:52:01.716Z,18.70
2023-06-27T04:53:01.639Z,18.43
2023-06-27T04:54:01.844Z,18.83
2023-06-27T04:55:01.658Z,17.37
2023-06-27T04:56:01.601Z,18.73
2023-06-27T04:58:01.317Z,17.30
2023-06-27T04:59:01.659Z,18.90
2023-06-27T05:00:02.113Z,18.87
2023-06-27T05:01:01.346Z,17.87
2023-06-27T05:02:01.274Z,19.50
2023-06-27T05:03:01.314Z,20.00
2023-06-27T05:04:02.801Z,17.63
2023-06-27T05:05:01.959Z,16.80
2023-06-27T05:06:01.253Z,18.43
2023-06-27T05:07:01.806Z,16.40
2023-06-27T05:08:02.345Z,19.47
2023-06-27T05:09:02.116Z,17.63
2023-06-27T05:10:01.666Z,16.90
2023-06-27T05:11:01.294Z,16.37
2023-06-27T05:12:01.682Z,17.90
2023-06-27T05:13:01.680Z,17.67
2023-06-27T05:14:01.624Z,18.00
2023-06-27T05:15:01.249Z,18.07
2023-06-27T05:16:02.036Z,17.93
2023-06-27T05:17:01.272Z,19.33
2023-06-27T05:18:20.742Z,17.67
2023-06-27T05:19:01.646Z,18.93
2023-06-27T05:20:01.278Z,17.97
2023-06-27T05:21:01.312Z,17.90
2023-06-27T05:22:01.341Z,16.40
2023-06-27T05:23:01.644Z,17.10
2023-06-27T05:24:01.636Z,17.47
2023-06-27T05:25:01.342Z,17.23
2023-06-27T05:26:01.665Z,18.13
2023-06-27T05:27:01.739Z,17.50
2023-06-27T05:28:02.080Z,17.40
2023-06-27T05:29:01.771Z,18.10
2023-06-27T05:30:01.675Z,18.30
2023-06-27T05:31:01.303Z,19.43
2023-06-27T05:32:01.263Z,18.27
2023-06-27T05:33:01.639Z,18.53
2023-06-27T05:34:01.347Z,19.07
2023-06-27T05:35:01.667Z,18.00
2023-06-27T05:36:01.319Z,17.20
2023-06-27T05:37:01.313Z,18.70
2023-06-27T05:38:01.474Z,18.23
2023-06-27T05:39:01.313Z,17.87
2023-06-27T05:40:01.276Z,17.97
2023-06-27T05:41:01.568Z,17.87
2023-06-27T05:42:01.250Z,16.67
2023-06-27T05:43:01.270Z,16.37
2023-06-27T05:44:01.614Z,16.20
2023-06-27T05:45:01.706Z,18.07
2023-06-27T05:46:01.637Z,16.43
2023-06-27T05:47:01.782Z,16.47
2023-06-27T05:48:01.342Z,16.17
2023-06-27T05:49:01.815Z,18.63
2023-06-27T05:50:01.554Z,19.43
2023-06-27T05:51:01.380Z,18.53
2023-06-27T05:52:01.669Z,18.37
2023-06-27T05:53:01.311Z,16.67
2023-06-27T05:54:01.622Z,17.27
2023-06-27T05:55:01.336Z,16.77
2023-06-27T05:56:01.645Z,18.27
2023-06-27T05:57:01.252Z,16.97
2023-06-27T05:58:01.260Z,18.13
2023-06-27T05:59:01.266Z,16.00
2023-06-27T06:00:02.323Z,17.10
2023-06-27T06:01:01.696Z,16.57
2023-06-27T06:02:01.726Z,17.10
2023-06-27T06:03:01.337Z,16.87
2023-06-27T06:04:01.851Z,17.17
2023-06-27T06:05:01.353Z,18.50
2023-06-27T06:06:01.609Z,15.70
2023-06-27T06:07:01.701Z,15.03
2023-06-27T06:08:01.349Z,17.07
2023-06-27T06:09:01.246Z,16.57
2023-06-27T06:10:01.346Z,16.40
2023-06-27T06:11:01.551Z,16.53
2023-06-27T06:12:01.855Z,15.50
2023-06-27T06:13:01.698Z,16.37
2023-06-27T06:14:01.287Z,17.73
2023-06-27T06:15:01.261Z,16.70
2023-06-27T06:16:01.324Z,15.17
2023-06-27T06:17:01.275Z,15.60
2023-06-27T06:18:01.738Z,15.60
2023-06-27T06:19:02.003Z,15.47
2023-06-27T06:20:01.705Z,16.47
2023-06-27T06:21:01.271Z,14.50
2023-06-27T06:22:01.595Z,15.07
2023-06-27T06:23:01.284Z,16.30
2023-06-27T06:24:01.248Z,15.13
2023-06-27T06:25:01.891Z,14.57
2023-06-27T06:26:01.312Z,14.67
2023-06-27T06:27:01.606Z,14.70
2023-06-27T06:28:01.300Z,14.90
2023-06-27T06:29:01.633Z,14.80
2023-06-27T06:30:01.351Z,13.03
2023-06-27T06:31:01.690Z,13.17
2023-06-27T06:32:01.354Z,13.87
2023-06-27T06:33:01.578Z,13.57
2023-06-27T06:34:01.309Z,13.80
2023-06-27T06:35:01.290Z,13.07
2023-06-27T06:36:01.623Z,14.10
2023-06-27T06:37:01.275Z,15.20
2023-06-27T06:38:01.561Z,15.90
2023-06-27T06:39:01.694Z,14.93
2023-06-27T06:40:01.283Z,15.27
2023-06-27T06:41:02.431Z,15.00
2023-06-27T06:42:01.321Z,14.10
2023-06-27T06:43:01.282Z,15.90
2023-06-27T06:44:01.940Z,13.33
2023-06-27T06:45:01.344Z,13.80
2023-06-27T06:46:01.860Z,15.07
2023-06-27T06:47:01.575Z,14.00
2023-06-27T06:48:01.778Z,13.40
2023-06-27T06:49:01.597Z,14.63
2023-06-27T06:50:01.939Z,14.03
2023-06-27T06:51:01.285Z,14.00
2023-06-27T06:52:01.341Z,12.73
2023-06-27T06:53:01.622Z,12.53
2023-06-27T06:54:01.633Z,14.07
2023-06-27T06:55:01.969Z,12.73
2023-06-27T06:56:01.553Z,13.77
2023-06-27T06:57:01.331Z,14.37
2023-06-27T06:58:01.359Z,13.47
2023-06-27T06:59:01.331Z,12.60
2023-06-27T07:00:01.440Z,12.50
2023-06-27T07:01:01.324Z,12.23
2023-06-27T07:02:01.249Z,13.83
2023-06-27T07:03:01.303Z,11.90
2023-06-27T07:04:01.724Z,13.23
2023-06-27T07:05:01.375Z,13.03
2023-06-27T07:06:01.705Z,11.50
2023-06-27T07:07:01.742Z,13.00
2023-06-27T07:08:01.281Z,14.13
2023-06-27T07:09:01.663Z,12.03
2023-06-27T07:10:01.353Z,11.53
2023-06-27T07:11:02.139Z,11.97
2023-06-27T07:12:01.695Z,12.13
2023-06-27T07:13:01.612Z,12.17
2023-06-27T07:14:01.333Z,12.33
2023-06-27T07:15:01.460Z,12.90
2023-06-27T07:16:01.768Z,11.73
2023-06-27T07:17:01.870Z,11.10
2023-06-27T07:18:01.770Z,12.77
2023-06-27T07:19:01.270Z,13.63
2023-06-27T07:20:01.717Z,12.23
2023-06-27T07:21:01.358Z,9.63
2023-06-27T07:22:01.259Z,12.17
2023-06-27T07:23:01.688Z,12.17
2023-06-27T07:24:01.664Z,11.40
2023-06-27T07:25:01.609Z,11.70
2023-06-27T07:26:01.321Z,10.73
2023-06-27T07:27:01.311Z,11.27
2023-06-27T07:28:01.603Z,10.67
2023-06-27T07:29:02.170Z,9.93
2023-06-27T07:30:01.316Z,6.13
2023-06-27T07:31:01.436Z,6.40
2023-06-27T07:32:01.916Z,6.00
2023-06-27T07:33:01.694Z,7.77
2023-06-27T07:34:01.591Z,5.23
2023-06-27T07:35:01.672Z,6.27
2023-06-27T07:36:01.280Z,6.13
2023-06-27T07:37:01.615Z,6.77
2023-06-27T07:38:01.614Z,6.30
2023-06-27T07:39:02.401Z,5.30
2023-06-27T07:40:02.350Z,6.00
2023-06-27T07:41:01.440Z,6.30
2023-06-27T07:42:01.256Z,6.83
2023-06-27T07:43:01.321Z,6.50
2023-06-27T07:44:01.602Z,5.57
2023-06-27T07:45:01.707Z,5.10
2023-06-27T07:46:01.281Z,5.60
2023-06-27T07:47:01.673Z,6.93
2023-06-27T07:48:01.813Z,5.37
2023-06-27T07:49:01.664Z,6.07
2023-06-27T07:50:01.940Z,7.23
2023-06-27T07:51:01.700Z,6.33
2023-06-27T07:52:01.676Z,5.33
2023-06-27T07:53:01.627Z,6.47
2023-06-27T07:54:01.401Z,4.70
2023-06-27T07:55:01.866Z,5.13
2023-06-27T07:56:01.278Z,5.83
2023-06-27T07:57:01.861Z,5.50
2023-06-27T07:58:01.572Z,5.30
2023-06-27T07:59:01.856Z,5.53
2023-06-27T08:00:01.740Z,6.23
2023-06-27T08:01:02.051Z,6.03
2023-06-27T08:02:01.765Z,4.23
2023-06-27T08:03:01.712Z,5.23
2023-06-27T08:04:01.433Z,5.70
2023-06-27T08:05:01.311Z,6.97
2023-06-27T08:06:03.976Z,7.13
2023-06-27T08:07:01.709Z,6.43
2023-06-27T08:08:01.659Z,5.43
2023-06-27T08:09:01.706Z,5.77
2023-06-27T08:10:01.250Z,6.30
2023-06-27T08:11:01.319Z,6.07
2023-06-27T08:12:03.856Z,6.43
2023-06-27T08:13:01.563Z,5.63
2023-06-27T08:14:01.844Z,6.63
2023-06-27T08:15:01.307Z,6.20
2023-06-27T08:16:01.606Z,6.83
2023-06-27T08:17:01.363Z,4.97
2023-06-27T08:18:02.104Z,5.03
2023-06-27T08:19:01.792Z,5.50
2023-06-27T08:20:01.375Z,6.27
2023-06-27T08:21:01.246Z,5.27
2023-06-27T08:22:01.257Z,6.37
2023-06-27T08:23:01.581Z,6.80
2023-06-27T08:24:01.292Z,6.23
2023-06-27T08:25:01.329Z,6.50
2023-06-27T08:26:01.663Z,6.43
2023-06-27T08:27:01.281Z,6.47
2023-06-27T08:28:01.337Z,6.33
2023-06-27T08:29:01.273Z,6.97
2023-06-27T08:30:01.718Z,6.20
2023-06-27T08:31:01.272Z,6.37
2023-06-27T08:32:01.249Z,6.93
2023-06-27T08:33:01.318Z,7.00
2023-06-27T08:34:01.613Z,6.07
2023-06-27T08:35:01.674Z,7.00
2023-06-27T08:36:01.575Z,6.77
2023-06-27T08:37:01.313Z,7.93
2023-06-27T08:38:01.250Z,6.03
2023-06-27T08:39:01.253Z,7.90
2023-06-27T08:40:01.273Z,5.90
2023-06-27T08:41:02.272Z,5.57
2023-06-27T08:42:01.436Z,6.33
2023-06-27T08:43:01.877Z,5.37
2023-06-27T08:44:02.183Z,5.80
2023-06-27T08:45:02.190Z,4.73
2023-06-27T08:46:04.748Z,5.40
2023-06-27T08:47:02.799Z,6.33
2023-06-27T08:48:03.205Z,5.67
2023-06-27T08:49:03.608Z,5.37
2023-06-27T08:50:03.324Z,4.63
2023-06-27T08:51:02.667Z,4.87
2023-06-27T08:52:03.389Z,4.00
2023-06-27T08:53:07.225Z,5.40
2023-06-27T08:54:12.188Z,5.00
2023-06-27T08:55:05.104Z,4.53
2023-06-27T08:56:06.559Z,5.87
2023-06-27T08:57:01.961Z,5.10
2023-06-27T08:58:03.457Z,4.73
2023-06-27T08:59:03.191Z,4.47
2023-06-27T09:00:03.407Z,4.70
2023-06-27T09:01:02.610Z,5.30
2023-06-27T09:02:03.597Z,4.83
2023-06-27T09:03:02.216Z,4.80
2023-06-27T09:04:03.010Z,4.27
2023-06-27T09:05:01.734Z,4.13
2023-06-27T09:06:02.692Z,3.20
2023-06-27T09:07:03.733Z,5.37
2023-06-27T09:08:02.333Z,5.37
2023-06-27T09:09:01.742Z,4.53
2023-06-27T09:10:02.767Z,4.40
2023-06-27T09:11:02.594Z,3.83
2023-06-27T09:12:03.152Z,5.83
2023-06-27T09:13:01.371Z,5.00
2023-06-27T09:14:01.960Z,3.80
2023-06-27T09:15:01.728Z,3.70
2023-06-27T09:16:01.694Z,3.33
2023-06-27T09:17:01.652Z,3.87
2023-06-27T09:18:01.485Z,4.10
2023-06-27T09:19:01.957Z,3.13
2023-06-27T09:20:01.331Z,4.47
2023-06-27T09:21:02.011Z,4.53
2023-06-27T09:22:01.764Z,4.17
2023-06-27T09:23:02.439Z,3.90
2023-06-27T09:24:05.749Z,4.40
2023-06-27T09:25:12.206Z,3.70
2023-06-27T09:26:10.074Z,3.60
2023-06-27T09:27:01.364Z,3.63
2023-06-27T09:28:14.842Z,4.30
2023-06-27T09:29:01.618Z,4.20
2023-06-27T09:30:01.920Z,3.27
2023-06-27T09:31:01.671Z,3.07
2023-06-27T09:32:09.177Z,2.40
2023-06-27T09:33:01.419Z,3.40
2023-06-27T09:34:05.523Z,3.57
2023-06-27T09:35:02.622Z,3.13
2023-06-27T09:36:02.883Z,3.10
2023-06-27T09:39:02.222Z,3.40
2023-06-27T09:40:19.692Z,2.97
2023-06-27T09:41:02.918Z,2.90
2023-06-27T09:42:02.440Z,3.00
2023-06-27T09:43:01.632Z,3.20
2023-06-27T09:44:02.950Z,3.33
2023-06-27T09:45:14.275Z,3.03
2023-06-27T09:46:04.078Z,3.73
2023-06-27T09:47:01.288Z,3.10
2023-06-27T09:48:01.695Z,2.20
2023-06-27T09:49:01.618Z,3.10
2023-06-27T09:50:01.596Z,3.00
2023-06-27T09:51:03.228Z,2.57
2023-06-27T09:52:04.722Z,2.57
2023-06-27T09:53:02.690Z,2.37
2023-06-27T09:54:02.163Z,3.10
2023-06-27T09:55:01.280Z,3.43
2023-06-27T09:56:01.902Z,2.67
2023-06-27T09:57:11.925Z,2.97
2023-06-27T09:58:03.292Z,3.67
2023-06-27T09:59:17.704Z,2.20
2023-06-27T10:00:01.584Z,3.00
2023-06-27T10:01:03.369Z,2.90
2023-06-27T10:02:01.630Z,2.97
2023-06-27T10:03:01.417Z,2.53
2023-06-27T10:04:02.753Z,2.30
2023-06-27T10:05:01.742Z,2.83
2023-06-27T10:07:02.014Z,2.90
2023-06-27T10:08:01.621Z,3.50
2023-06-27T10:09:01.644Z,2.17
2023-06-27T10:10:01.456Z,3.47
2023-06-27T10:11:01.605Z,3.40
2023-06-27T10:12:02.028Z,2.30
2023-06-27T10:13:01.971Z,3.03
2023-06-27T10:14:01.817Z,1.80
2023-06-27T10:15:02.467Z,3.07
2023-06-27T10:16:02.572Z,3.03
2023-06-27T10:17:01.693Z,2.03
2023-06-27T10:18:01.716Z,3.10
2023-06-27T10:19:02.012Z,3.00
2023-06-27T10:20:02.550Z,2.13
2023-06-27T10:21:01.952Z,2.90
2023-06-27T10:22:03.230Z,1.53
2023-06-27T10:23:02.485Z,2.77
2023-06-27T10:24:04.120Z,3.00
2023-06-27T10:25:05.001Z,2.67
2023-06-27T10:26:02.368Z,2.67
2023-06-27T10:27:02.429Z,3.00
2023-06-27T10:28:05.605Z,1.63
2023-06-27T10:29:14.558Z,2.10
2023-06-27T10:30:03.267Z,1.63
2023-06-27T10:31:01.740Z,2.00
2023-06-27T10:32:01.362Z,2.37
2023-06-27T10:33:10.375Z,2.53
2023-06-27T10:34:02.365Z,0.97
2023-06-27T10:35:09.244Z,0.27
2023-06-27T10:36:04.015Z,1.63
2023-06-27T10:37:01.682Z,2.00
2023-06-27T10:38:06.238Z,1.43
2023-06-27T10:39:01.338Z,1.60
2023-06-27T10:40:01.697Z,1.97
2023-06-27T10:41:11.960Z,2.37
2023-06-27T10:42:03.283Z,1.57
2023-06-27T10:43:01.256Z,1.67
2023-06-27T10:44:08.793Z,1.97
2023-06-27T10:45:06.194Z,0.57
2023-06-27T10:46:05.744Z,2.00
2023-06-27T10:47:20.754Z,1.10
2023-06-27T10:48:03.288Z,1.80
2023-06-27T10:49:03.434Z,2.40
2023-06-27T10:50:03.987Z,1.63
2023-06-27T10:51:06.442Z,1.23
2023-06-27T10:52:01.361Z,1.70
2023-06-27T10:53:06.713Z,2.17
2023-06-27T10:54:11.947Z,2.07
2023-06-27T10:55:20.709Z,0.70
2023-06-27T10:56:15.027Z,1.07
2023-06-27T10:57:01.528Z,1.77
2023-06-27T10:58:03.131Z,1.87
2023-06-27T10:59:02.987Z,1.90
2023-06-27T11:00:11.946Z,0.87
2023-06-27T11:01:01.747Z,1.37
2023-06-27T11:02:03.943Z,0.90
2023-06-27T11:03:04.556Z,1.40
2023-06-27T11:04:19.801Z,1.23
2023-06-27T11:05:01.752Z,0.93
2023-06-27T11:06:04.998Z,1.80
2023-06-27T11:07:02.319Z,0.93
2023-06-27T11:08:02.575Z,1.60
2023-06-27T11:09:03.424Z,1.23
2023-06-27T11:10:11.154Z,0.80
2023-06-27T11:11:04.166Z,1.57
2023-06-27T11:12:09.619Z,0.37
2023-06-27T11:13:13.037Z,1.53
2023-06-27T11:14:05.653Z,0.67
2023-06-27T11:15:01.801Z,1.40
2023-06-27T11:16:02.184Z,1.00
2023-06-27T11:17:02.632Z,0.90
2023-06-27T11:18:01.649Z,1.50
2023-06-27T11:19:02.256Z,1.03
2023-06-27T11:20:01.840Z,0.87
2023-06-27T11:21:02.048Z,1.00
2023-06-27T11:22:01.923Z,0.97
2023-06-27T11:23:02.245Z,0.07
2023-06-27T11:24:02.696Z,1.43
2023-06-27T11:25:10.583Z,1.07
2023-06-27T11:26:01.686Z,1.33
2023-06-27T11:27:03.989Z,1.93
2023-06-27T11:28:01.628Z,1.50
2023-06-27T11:29:02.873Z,1.13
2023-06-27T11:30:01.539Z,2.00
2023-06-27T11:31:01.757Z,1.00
2023-06-27T11:32:01.871Z,1.33
2023-06-27T11:33:01.587Z,1.70
2023-06-27T11:34:01.365Z,0.57
2023-06-27T11:35:04.836Z,1.47
2023-06-27T11:36:01.483Z,1.00
2023-06-27T11:37:01.318Z,1.20
2023-06-27T11:38:05.685Z,1.03
2023-06-27T11:39:01.409Z,1.70
2023-06-27T11:40:01.273Z,1.03
2023-06-27T11:41:02.242Z,1.00
2023-06-27T11:42:01.257Z,1.40
2023-06-27T11:43:02.848Z,0.27
2023-06-27T11:44:01.258Z,1.67
2023-06-27T11:45:01.694Z,1.27
2023-06-27T11:46:01.268Z,1.33
2023-06-27T11:47:05.413Z,1.47
2023-06-27T11:48:02.020Z,1.23
2023-06-27T11:49:01.276Z,0.87
2023-06-27T11:50:05.885Z,0.50
2023-06-27T11:51:06.673Z,1.40
2023-06-27T11:52:01.603Z,1.83
2023-06-27T11:53:01.644Z,1.77
2023-06-27T11:54:01.363Z,1.63
2023-06-27T11:55:04.896Z,1.43
2023-06-27T11:57:01.726Z,2.13
2023-06-27T11:58:01.320Z,2.00
2023-06-27T11:59:01.565Z,2.30
2023-06-27T12:00:01.348Z,2.00
2023-06-27T12:01:02.028Z,2.40
2023-06-27T12:02:02.483Z,2.53
2023-06-27T12:03:02.483Z,2.43
2023-06-27T12:04:01.676Z,2.53
2023-06-27T12:05:01.642Z,3.50
2023-06-27T12:06:01.330Z,3.57
2023-06-27T12:07:18.430Z,3.47
2023-06-27T12:08:06.541Z,3.30
2023-06-27T12:09:01.404Z,2.90
2023-06-27T12:10:05.517Z,3.50
2023-06-27T12:11:02.543Z,4.77
2023-06-27T12:12:01.780Z,2.90
2023-06-27T12:13:01.577Z,4.20
2023-06-27T12:14:02.465Z,4.37
2023-06-27T12:15:10.995Z,3.43
2023-06-27T12:16:02.559Z,3.53
2023-06-27T12:17:01.804Z,4.17
2023-06-27T12:18:03.388Z,4.27
2023-06-27T12:19:02.401Z,4.50
2023-06-27T12:20:03.181Z,5.00
2023-06-27T12:21:01.274Z,4.37
2023-06-27T12:22:01.306Z,5.00
2023-06-27T12:23:01.311Z,4.43
2023-06-27T12:24:02.063Z,4.37
2023-06-27T12:25:01.399Z,5.57
2023-06-27T12:26:01.701Z,4.93
2023-06-27T12:27:01.348Z,5.67
2023-06-27T12:28:02.269Z,3.80
2023-06-27T12:29:03.025Z,4.83
2023-06-27T12:30:02.098Z,5.73
2023-06-27T12:31:01.338Z,5.80
2023-06-27T12:32:01.706Z,6.20
2023-06-27T12:33:01.852Z,4.90
2023-06-27T12:34:01.626Z,6.57
2023-06-27T12:35:01.628Z,7.40
2023-06-27T12:36:01.428Z,6.10
2023-06-27T12:37:01.265Z,5.67
2023-06-27T12:38:01.720Z,5.63
2023-06-27T12:39:01.477Z,7.17
2023-06-27T12:40:01.576Z,7.00
2023-06-27T12:41:01.271Z,6.30
2023-06-27T12:42:01.606Z,6.13
2023-06-27T12:43:01.636Z,6.70
2023-06-27T12:44:01.694Z,6.83
2023-06-27T12:45:01.330Z,6.53
2023-06-27T12:46:02.857Z,7.13
2023-06-27T12:47:01.695Z,8.97
2023-06-27T12:48:01.729Z,5.70
2023-06-27T12:49:01.278Z,7.57
2023-06-27T12:50:01.259Z,5.83
2023-06-27T12:51:01.949Z,7.33
2023-06-27T12:52:01.273Z,8.27
2023-06-27T12:53:01.553Z,7.00
2023-06-27T12:54:01.268Z,7.67
2023-06-27T12:55:01.313Z,8.40
2023-06-27T12:56:01.809Z,7.97
2023-06-27T12:57:01.257Z,6.73
2023-06-27T12:58:01.477Z,7.77
2023-06-27T12:59:01.259Z,7.90
2023-06-27T13:00:01.615Z,8.27
2023-06-27T13:01:02.035Z,7.97
2023-06-27T13:02:01.762Z,7.17
2023-06-27T13:03:16.879Z,6.97
2023-06-27T13:04:01.351Z,6.27
2023-06-27T13:05:01.326Z,7.60
2023-06-27T13:06:01.314Z,7.27
2023-06-27T13:07:01.738Z,8.37
2023-06-27T13:08:01.322Z,7.63